createdAt,value
2019-05-05T00:00:51.029Z,4.03
2019-05-05T00:03:16.178Z,6.20
2019-05-05T00:05:41.460Z,3.40
2019-05-05T00:08:05.358Z,3.60
2019-05-05T00:10:46.484Z,5.93
2019-05-05T00:13:11.535Z,4.13
2019-05-05T00:15:54.735Z,4.47
2019-05-05T00:18:19.788Z,4.07
2019-05-05T00:20:44.647Z,3.53
2019-05-05T00:23:08.150Z,4.80
2019-05-05T00:25:31.611Z,4.33
2019-05-05T00:27:55.027Z,4.73
2019-05-05T00:30:18.547Z,3.22
2019-05-05T00:32:44.164Z,4.30
2019-05-05T00:35:07.775Z,4.97
2019-05-05T00:37:31.239Z,5.60
2019-05-05T00:39:54.670Z,4.47
2019-05-05T00:42:18.119Z,4.20
2019-05-05T00:44:41.570Z,4.10
2019-05-05T00:47:06.771Z,3.37
2019-05-05T00:49:45.575Z,5.53
2019-05-05T00:51:57.005Z,3.70
2019-05-05T00:54:20.462Z,4.63
2019-05-05T00:56:45.032Z,8.40
2019-05-05T00:59:10.228Z,4.10
2019-05-05T01:01:44.850Z,6.97
2019-05-05T01:04:08.832Z,3.87
2019-05-05T01:06:34.520Z,5.50
2019-05-05T01:08:58.166Z,4.10
2019-05-05T01:11:21.633Z,5.12
2019-05-05T01:13:45.596Z,5.37
2019-05-05T01:16:09.141Z,5.87
2019-05-05T01:18:34.989Z,6.50
2019-05-05T01:20:58.022Z,3.70
2019-05-05T01:23:21.474Z,4.33
2019-05-05T01:25:47.120Z,5.50
2019-05-05T01:28:10.219Z,8.93
2019-05-05T01:30:35.267Z,3.37
2019-05-05T01:33:18.398Z,3.47
2019-05-05T01:35:41.818Z,4.67
2019-05-05T01:38:10.129Z,3.80
2019-05-05T01:40:37.892Z,6.70
2019-05-05T01:43:01.347Z,5.97
2019-05-05T01:45:24.873Z,5.10
2019-05-05T01:47:48.586Z,3.50
2019-05-05T01:50:18.218Z,5.70
2019-05-05T01:52:37.690Z,3.30
2019-05-05T01:55:01.435Z,3.97
2019-05-05T01:57:25.308Z,3.97
2019-05-05T01:59:48.926Z,5.40
2019-05-05T02:02:14.415Z,3.87
2019-05-05T02:04:37.560Z,4.07
2019-05-05T02:07:00.989Z,4.97
2019-05-05T02:09:25.152Z,4.00
2019-05-05T02:11:48.695Z,4.60
2019-05-05T02:14:12.102Z,5.43
2019-05-05T02:16:35.580Z,4.30
2019-05-05T02:18:59.000Z,6.57
2019-05-05T02:21:24.293Z,4.03
2019-05-05T02:23:47.603Z,3.80
2019-05-05T02:26:11.056Z,4.10
2019-05-05T02:28:36.179Z,3.87
2019-05-05T02:31:07.039Z,4.53
2019-05-05T02:33:30.450Z,4.37
2019-05-05T02:35:55.654Z,5.23
2019-05-05T02:38:19.405Z,5.33
2019-05-05T02:40:45.244Z,4.80
2019-05-05T02:43:09.402Z,5.43
2019-05-05T02:45:54.933Z,6.93
2019-05-05T02:48:20.239Z,3.57
2019-05-05T02:51:01.816Z,4.00
2019-05-05T02:53:24.761Z,3.90
2019-05-05T02:55:50.000Z,5.67
2019-05-05T02:58:14.702Z,7.80
2019-05-05T03:00:57.787Z,6.80
2019-05-05T03:03:21.426Z,5.77
2019-05-05T03:05:45.281Z,5.53
2019-05-05T03:08:08.873Z,4.73
2019-05-05T03:10:33.991Z,5.27
2019-05-05T03:13:00.055Z,6.23
2019-05-05T03:15:38.746Z,5.00
2019-05-05T03:18:04.173Z,8.03
2019-05-05T03:20:27.524Z,5.77
2019-05-05T03:22:50.943Z,4.87
2019-05-05T03:25:14.479Z,6.73
2019-05-05T03:27:38.462Z,5.93
2019-05-05T03:30:04.972Z,5.50
2019-05-05T03:32:28.696Z,6.87
2019-05-05T03:34:53.679Z,7.27
2019-05-05T03:37:17.390Z,5.57
2019-05-05T03:39:44.478Z,4.87
2019-05-05T03:42:10.536Z,4.80
2019-05-05T03:44:35.630Z,5.90
2019-05-05T03:46:59.946Z,6.70
2019-05-05T03:49:24.391Z,4.90
2019-05-05T03:51:47.767Z,6.37
2019-05-05T03:54:11.463Z,5.47
2019-05-05T03:56:35.042Z,7.77
2019-05-05T03:58:58.676Z,6.63
2019-05-05T04:01:44.071Z,8.53
2019-05-05T04:04:25.330Z,6.40
2019-05-05T04:06:50.409Z,6.73
2019-05-05T04:09:13.844Z,6.67
2019-05-05T04:11:37.521Z,6.30
2019-05-05T04:14:01.330Z,7.87
2019-05-05T04:16:26.870Z,5.90
2019-05-05T04:18:54.102Z,7.10
2019-05-05T04:21:29.905Z,7.37
2019-05-05T04:23:44.042Z,7.33
2019-05-05T04:26:09.741Z,9.67
2019-05-05T04:28:34.549Z,10.63
2019-05-05T04:30:58.149Z,10.83
2019-05-05T04:33:23.530Z,8.90
2019-05-05T04:35:46.754Z,9.07
2019-05-05T04:38:10.215Z,8.27
2019-05-05T04:40:34.537Z,6.93
2019-05-05T04:42:58.161Z,7.47
2019-05-05T04:45:21.621Z,7.03
2019-05-05T04:47:53.906Z,7.83
2019-05-05T04:50:19.203Z,11.37
2019-05-05T04:52:43.470Z,7.87
2019-05-05T04:55:07.250Z,8.57
2019-05-05T04:57:30.676Z,9.10
2019-05-05T04:59:54.282Z,8.57
2019-05-05T05:02:25.324Z,8.43
2019-05-05T05:04:50.448Z,6.90
2019-05-05T05:07:14.453Z,6.40
2019-05-05T05:09:37.911Z,6.87
2019-05-05T05:12:01.439Z,8.03
2019-05-05T05:14:24.884Z,8.23
2019-05-05T05:16:48.824Z,6.40
2019-05-05T05:19:13.766Z,5.90
2019-05-05T05:21:37.389Z,5.10
2019-05-05T05:24:00.957Z,7.03
2019-05-05T05:26:24.392Z,5.50
2019-05-05T05:28:47.854Z,6.13
2019-05-05T05:31:11.268Z,6.73
2019-05-05T05:33:34.722Z,6.33
2019-05-05T05:35:58.149Z,6.27
2019-05-05T05:38:24.113Z,5.73
2019-05-05T05:40:53.516Z,6.10
2019-05-05T05:43:18.275Z,8.27
2019-05-05T05:45:49.535Z,7.70
2019-05-05T05:48:20.591Z,4.90
2019-05-05T05:50:45.661Z,7.10
2019-05-05T05:53:09.121Z,6.63
2019-05-05T05:55:34.297Z,6.20
2019-05-05T05:57:57.885Z,7.47
2019-05-05T06:00:21.369Z,6.90
2019-05-05T06:02:44.812Z,6.00
2019-05-05T06:05:08.343Z,10.30
2019-05-05T06:07:33.585Z,5.73
2019-05-05T06:09:57.236Z,10.33
2019-05-05T06:12:20.651Z,6.50
2019-05-05T06:14:44.747Z,9.50
2019-05-05T06:17:08.392Z,5.03
2019-05-05T06:19:33.781Z,6.27
2019-05-05T06:21:56.996Z,7.47
2019-05-05T06:24:20.453Z,7.40
2019-05-05T06:26:44.552Z,7.40
2019-05-05T06:29:08.112Z,11.30
2019-05-05T06:31:33.975Z,6.07
2019-05-05T06:33:57.037Z,6.27
2019-05-05T06:36:20.502Z,6.73
2019-05-05T06:38:43.974Z,7.07
2019-05-05T06:41:24.074Z,5.23
2019-05-05T06:44:07.241Z,4.90
2019-05-05T06:46:34.222Z,6.83
2019-05-05T06:48:57.475Z,6.80
2019-05-05T06:51:20.939Z,5.43
2019-05-05T06:53:44.693Z,6.10
2019-05-05T06:56:08.168Z,5.30
2019-05-05T06:58:31.584Z,8.10
2019-05-05T07:00:55.057Z,6.87
2019-05-05T07:03:18.505Z,6.53
2019-05-05T07:05:43.699Z,5.63
2019-05-05T07:08:07.390Z,5.90
2019-05-05T07:10:30.816Z,7.77
2019-05-05T07:12:54.451Z,4.83
2019-05-05T07:15:18.002Z,3.30
2019-05-05T07:17:41.499Z,7.73
2019-05-05T07:20:08.018Z,5.30
2019-05-05T07:22:31.470Z,4.70
2019-05-05T07:24:54.929Z,4.93
2019-05-05T07:27:18.339Z,5.57
2019-05-05T07:29:43.689Z,6.87
2019-05-05T07:32:06.968Z,10.27
2019-05-05T07:34:33.490Z,4.33
2019-05-05T07:36:57.246Z,6.37
2019-05-05T07:39:21.028Z,4.67
2019-05-05T07:41:44.796Z,4.23
2019-05-05T07:44:08.362Z,4.97
2019-05-05T07:46:31.834Z,4.17
2019-05-05T07:48:55.582Z,3.13
2019-05-05T07:51:18.997Z,6.30
2019-05-05T07:53:44.192Z,3.63
2019-05-05T07:56:09.321Z,5.37
2019-05-05T07:58:34.504Z,3.43
2019-05-05T08:00:58.142Z,6.87
2019-05-05T08:03:23.512Z,4.60
2019-05-05T08:05:47.101Z,3.90
2019-05-05T08:08:10.562Z,4.27
2019-05-05T08:10:34.460Z,7.57
2019-05-05T08:12:57.987Z,3.90
2019-05-05T08:15:23.791Z,6.07
2019-05-05T08:17:58.135Z,4.93
2019-05-05T08:20:29.110Z,2.70
2019-05-05T08:22:53.645Z,6.10
2019-05-05T08:25:34.506Z,3.57
2019-05-05T08:27:48.879Z,4.30
2019-05-05T08:30:30.651Z,3.17
2019-05-05T08:32:54.653Z,5.10
2019-05-05T08:35:18.144Z,6.70
2019-05-05T08:37:43.532Z,2.00
2019-05-05T08:40:10.110Z,2.90
2019-05-05T08:42:33.953Z,5.70
2019-05-05T08:44:57.483Z,2.60
2019-05-05T08:47:20.924Z,3.70
2019-05-05T08:49:44.407Z,4.93
2019-05-05T08:52:07.982Z,2.27
2019-05-05T08:54:31.402Z,7.13
2019-05-05T08:56:55.097Z,4.53
2019-05-05T08:59:18.885Z,2.63
2019-05-05T09:01:44.697Z,3.03
2019-05-05T09:04:07.756Z,5.00
2019-05-05T09:06:31.227Z,4.20
2019-05-05T09:08:54.893Z,3.90
2019-05-05T09:11:18.291Z,3.53
2019-05-05T09:13:41.763Z,4.33
2019-05-05T09:16:05.211Z,7.60
2019-05-05T09:18:28.635Z,4.60
2019-05-05T09:20:53.749Z,3.13
2019-05-05T09:23:17.207Z,3.60
2019-05-05T09:25:48.266Z,2.27
2019-05-05T09:28:19.341Z,2.83
2019-05-05T09:30:44.509Z,2.53
2019-05-05T09:33:08.356Z,4.53
2019-05-05T09:35:31.830Z,2.53
2019-05-05T09:37:55.259Z,3.40
2019-05-05T09:40:21.765Z,5.60
2019-05-05T09:42:45.247Z,6.07
2019-05-05T09:45:09.395Z,2.83
2019-05-05T09:47:34.352Z,2.87
2019-05-05T09:49:57.944Z,5.30
2019-05-05T09:52:21.396Z,2.93
2019-05-05T09:54:44.820Z,4.17
2019-05-05T09:57:08.276Z,2.53
2019-05-05T09:59:31.735Z,2.10
2019-05-05T10:01:55.197Z,3.13
2019-05-05T10:04:18.625Z,2.73
2019-05-05T10:06:45.738Z,4.00
2019-05-05T10:09:10.305Z,2.40
2019-05-05T10:11:35.370Z,2.20
2019-05-05T10:13:59.083Z,2.90
2019-05-05T10:16:23.561Z,2.63
2019-05-05T10:18:47.064Z,2.77
2019-05-05T10:21:10.493Z,5.17
2019-05-05T10:23:35.583Z,1.90
2019-05-05T10:26:06.680Z,2.80
2019-05-05T10:28:30.133Z,1.80
2019-05-05T10:30:53.896Z,2.20
2019-05-05T10:33:17.400Z,2.50
2019-05-05T10:35:40.856Z,1.93
2019-05-05T10:38:04.415Z,2.13
2019-05-05T10:40:29.526Z,4.23
2019-05-05T10:42:53.925Z,2.80
2019-05-05T10:45:18.930Z,3.60
2019-05-05T10:47:44.037Z,3.70
2019-05-05T10:50:07.699Z,1.73
2019-05-05T10:52:31.168Z,3.07
2019-05-05T10:54:54.887Z,3.07
2019-05-05T10:57:18.611Z,2.60
2019-05-05T10:59:43.549Z,1.73
2019-05-05T11:02:07.059Z,4.33
2019-05-05T11:04:30.492Z,2.60
2019-05-05T11:06:54.618Z,2.20
2019-05-05T11:09:18.228Z,3.07
2019-05-05T11:11:43.753Z,1.50
2019-05-05T11:14:06.837Z,3.00
2019-05-05T11:16:30.457Z,2.10
2019-05-05T11:18:54.141Z,2.30
2019-05-05T11:21:17.809Z,4.30
2019-05-05T11:23:41.269Z,5.67
2019-05-05T11:26:04.764Z,3.00
2019-05-05T11:28:28.233Z,3.43
2019-05-05T11:30:53.625Z,2.30
2019-05-05T11:33:34.786Z,3.20
2019-05-05T11:35:59.843Z,2.70
2019-05-05T11:38:24.705Z,2.17
2019-05-05T11:40:48.620Z,2.87
2019-05-05T11:43:14.070Z,3.03
2019-05-05T11:45:37.286Z,2.00
2019-05-05T11:48:00.764Z,3.40
2019-05-05T11:50:24.187Z,3.90
2019-05-05T11:52:47.605Z,3.00
2019-05-05T11:55:12.273Z,3.23
2019-05-05T11:57:36.368Z,4.27
2019-05-05T12:00:00.203Z,1.90
2019-05-05T12:02:24.403Z,2.70
2019-05-05T12:04:47.796Z,3.10
2019-05-05T12:07:11.266Z,2.33
2019-05-05T12:09:36.335Z,3.40
2019-05-05T12:11:59.802Z,4.17
2019-05-05T12:14:27.155Z,3.10
2019-05-05T12:16:50.041Z,2.57
2019-05-05T12:19:13.842Z,3.60
2019-05-05T12:21:37.402Z,2.57
2019-05-05T12:24:03.826Z,2.50
2019-05-05T12:26:29.050Z,2.30
2019-05-05T12:29:00.105Z,3.13
2019-05-05T12:31:25.174Z,4.63
2019-05-05T12:33:48.614Z,4.13
2019-05-05T12:36:12.169Z,2.93
2019-05-05T12:38:35.587Z,3.60
2019-05-05T12:40:59.045Z,3.07
2019-05-05T12:43:24.553Z,2.00
2019-05-05T12:46:05.312Z,3.50
2019-05-05T12:48:34.483Z,2.60
2019-05-05T12:50:58.045Z,3.60
2019-05-05T12:53:23.690Z,2.97
2019-05-05T12:55:46.669Z,3.73
2019-05-05T12:58:10.098Z,2.90
2019-05-05T13:00:35.031Z,5.30
2019-05-05T13:02:58.470Z,3.27
2019-05-05T13:05:23.650Z,2.97
2019-05-05T13:07:47.217Z,3.80
2019-05-05T13:10:13.768Z,3.57
2019-05-05T13:12:37.453Z,5.03
2019-05-05T13:15:01.030Z,4.53
2019-05-05T13:17:24.604Z,3.60
2019-05-05T13:19:49.612Z,2.40
2019-05-05T13:22:17.596Z,3.90
2019-05-05T13:24:48.697Z,2.63
2019-05-05T13:27:19.382Z,5.63
2019-05-05T13:29:39.076Z,2.53
2019-05-05T13:32:03.615Z,3.02
2019-05-05T13:34:27.275Z,3.73
2019-05-05T13:36:50.700Z,2.70
2019-05-05T13:39:14.577Z,3.23
2019-05-05T13:41:38.052Z,4.10
2019-05-05T13:44:04.501Z,3.57
2019-05-05T13:46:29.655Z,2.07
2019-05-05T13:48:53.909Z,4.63
2019-05-05T13:51:19.485Z,3.80
2019-05-05T13:53:44.710Z,4.83
2019-05-05T13:56:12.208Z,4.60
2019-05-05T13:58:34.281Z,4.40
2019-05-05T14:00:57.827Z,3.73
2019-05-05T14:03:23.398Z,3.30
2019-05-05T14:05:46.813Z,2.17
2019-05-05T14:08:10.239Z,6.13
2019-05-05T14:10:33.698Z,3.23
2019-05-05T14:12:57.135Z,2.70
2019-05-05T14:15:20.942Z,5.97
2019-05-05T14:17:45.598Z,2.73
2019-05-05T14:20:11.991Z,4.23
2019-05-05T14:22:34.562Z,6.17
2019-05-05T14:24:59.728Z,3.33
2019-05-05T14:27:23.827Z,2.07
2019-05-05T14:29:49.029Z,4.23
2019-05-05T14:32:14.098Z,3.60
2019-05-05T14:34:39.205Z,3.30
2019-05-05T14:37:20.240Z,5.20
2019-05-05T14:39:43.714Z,3.73
2019-05-05T14:42:07.152Z,3.03
2019-05-05T14:44:30.620Z,2.60
2019-05-05T14:46:54.048Z,3.33
2019-05-05T14:49:17.515Z,3.17
2019-05-05T14:51:41.283Z,4.93
2019-05-05T14:54:04.885Z,3.23
2019-05-05T14:56:36.099Z,3.97
2019-05-05T15:01:19.010Z,3.80
2019-05-05T15:03:44.341Z,4.00
2019-05-05T15:06:09.265Z,3.00
2019-05-05T15:08:51.225Z,3.07
2019-05-05T15:11:34.151Z,3.20
2019-05-05T15:13:57.617Z,5.57
2019-05-05T15:16:21.060Z,3.10
2019-05-05T15:18:44.492Z,3.93
2019-05-05T15:21:08.014Z,2.33
2019-05-05T15:23:31.787Z,3.23
2019-05-05T15:25:55.204Z,2.10
2019-05-05T15:28:18.638Z,3.80
2019-05-05T15:30:43.991Z,4.00
2019-05-05T15:33:07.293Z,3.33
2019-05-05T15:35:30.849Z,6.43
2019-05-05T15:37:54.335Z,2.13
2019-05-05T15:40:18.681Z,4.50
2019-05-05T15:42:43.861Z,2.83
2019-05-05T15:45:07.609Z,2.43
2019-05-05T15:47:31.038Z,1.93
2019-05-05T15:49:54.543Z,1.83
2019-05-05T15:52:20.137Z,3.50
2019-05-05T15:54:44.639Z,2.50
2019-05-05T15:57:09.595Z,3.07
2019-05-05T15:59:34.293Z,1.60
2019-05-05T16:01:58.163Z,2.47
2019-05-05T16:04:23.445Z,1.90
2019-05-05T16:06:46.813Z,5.07
2019-05-05T16:09:10.242Z,3.93
2019-05-05T16:11:34.037Z,5.97
2019-05-05T16:13:57.453Z,4.77
2019-05-05T16:16:37.916Z,3.20
2019-05-05T16:19:06.278Z,2.30
2019-05-05T16:21:45.242Z,2.00
2019-05-05T16:24:16.637Z,2.60
2019-05-05T16:26:40.077Z,4.43
2019-05-05T16:29:04.155Z,3.37
2019-05-05T16:31:27.874Z,3.83
2019-05-05T16:33:51.305Z,3.23
2019-05-05T16:36:14.767Z,4.37
2019-05-05T16:38:38.203Z,3.33
2019-05-05T16:41:01.709Z,8.27
2019-05-05T16:43:25.147Z,10.13
2019-05-05T16:45:48.587Z,10.53
2019-05-05T16:48:12.062Z,5.33
2019-05-05T16:50:36.850Z,2.63
2019-05-05T16:53:04.618Z,2.53
2019-05-05T16:55:32.166Z,3.03
2019-05-05T16:57:55.934Z,3.90
2019-05-05T17:00:21.571Z,3.67
2019-05-05T17:02:45.030Z,4.90
2019-05-05T17:05:08.555Z,5.30
2019-05-05T17:07:34.222Z,3.60
2019-05-05T17:09:57.508Z,3.30
2019-05-05T17:12:20.963Z,3.70
2019-05-05T17:15:04.351Z,4.67
2019-05-05T17:17:45.747Z,5.37
2019-05-05T17:20:16.822Z,3.00
2019-05-05T17:22:51.672Z,5.30
2019-05-05T17:25:15.152Z,5.43
2019-05-05T17:27:47.767Z,7.03
2019-05-05T17:30:06.348Z,4.67
2019-05-05T17:32:29.836Z,4.37
2019-05-05T17:34:54.107Z,2.60
2019-05-05T17:37:17.706Z,4.33
2019-05-05T17:39:43.727Z,3.50
2019-05-05T17:42:14.923Z,4.60
2019-05-05T17:44:40.043Z,2.67
2019-05-05T17:47:05.142Z,5.17
2019-05-05T17:49:36.150Z,2.87
2019-05-05T17:52:01.267Z,3.60
2019-05-05T17:54:28.835Z,2.97
2019-05-05T17:56:54.873Z,3.03
2019-05-05T17:59:17.487Z,3.40
2019-05-05T18:01:41.319Z,2.93
2019-05-05T18:04:04.822Z,1.97
2019-05-05T18:06:34.332Z,2.03
2019-05-05T18:09:11.574Z,2.83
2019-05-05T18:11:39.095Z,4.27
2019-05-05T18:14:07.201Z,1.70
2019-05-05T18:16:30.678Z,2.20
2019-05-05T18:18:54.845Z,2.50
2019-05-05T18:21:18.438Z,1.93
2019-05-05T18:23:43.721Z,7.97
2019-05-05T18:26:07.080Z,1.90
2019-05-05T18:28:30.524Z,2.47
2019-05-05T18:30:54.100Z,2.37
2019-05-05T18:33:17.583Z,3.90
2019-05-05T18:35:41.360Z,4.30
2019-05-05T18:38:04.915Z,2.17
2019-05-05T18:40:28.355Z,2.30
2019-05-05T18:42:52.134Z,2.00
2019-05-05T18:45:20.221Z,2.65
2019-05-05T18:47:43.678Z,3.00
2019-05-05T18:50:07.693Z,2.40
2019-05-05T18:52:31.513Z,3.57
2019-05-05T18:54:54.993Z,2.57
2019-05-05T18:57:18.415Z,2.97
2019-05-05T18:59:44.475Z,4.90
2019-05-05T19:02:24.137Z,16.97
2019-05-05T19:05:01.438Z,16.40
2019-05-05T19:07:26.512Z,24.13
2019-05-05T19:09:54.030Z,30.47
2019-05-05T19:12:15.145Z,4.77
2019-05-05T19:14:38.565Z,5.43
2019-05-05T19:17:04.451Z,10.93
2019-05-05T19:19:27.477Z,16.83
2019-05-05T19:22:04.997Z,12.90
2019-05-05T19:24:28.441Z,14.67
2019-05-05T19:26:54.221Z,12.47
2019-05-05T19:29:17.416Z,11.67
2019-05-05T19:31:40.899Z,12.43
2019-05-05T19:34:04.485Z,13.17
2019-05-05T19:36:27.905Z,14.17
2019-05-05T19:38:51.390Z,9.67
2019-05-05T19:41:14.889Z,7.70
2019-05-05T19:43:39.971Z,7.23
2019-05-05T19:46:04.221Z,5.77
2019-05-05T19:48:28.093Z,6.87
2019-05-05T19:50:54.215Z,11.63
2019-05-05T19:53:25.395Z,10.23
2019-05-05T19:55:48.812Z,9.83
2019-05-05T19:58:14.026Z,9.77
2019-05-05T20:00:38.608Z,8.20
2019-05-05T20:03:05.158Z,7.63
2019-05-05T20:05:27.642Z,5.57
2019-05-05T20:07:51.104Z,11.93
2019-05-05T20:10:14.960Z,21.33
2019-05-05T20:12:38.403Z,17.33
2019-05-05T20:15:04.058Z,9.70
2019-05-05T20:17:33.764Z,8.47
2019-05-05T20:19:57.288Z,6.73
2019-05-05T20:22:20.851Z,6.10
2019-05-05T20:24:44.576Z,7.37
2019-05-05T20:28:00.449Z,7.67
2019-05-05T20:30:24.680Z,5.87
2019-05-05T20:32:58.693Z,9.00
2019-05-05T20:35:39.921Z,10.97
2019-05-05T20:38:11.001Z,9.03
2019-05-05T20:40:36.124Z,7.33
2019-05-05T20:42:59.583Z,7.20
2019-05-05T20:45:24.696Z,8.07
2019-05-05T20:47:48.107Z,9.70
2019-05-05T20:50:11.759Z,9.23
2019-05-05T20:53:24.674Z,6.63
2019-05-05T20:55:47.653Z,7.60
2019-05-05T20:58:11.111Z,8.40
2019-05-05T21:00:34.929Z,7.70
2019-05-05T21:02:58.407Z,8.50
2019-05-05T21:05:24.033Z,7.03
2019-05-05T21:07:47.011Z,5.90
2019-05-05T21:10:11.099Z,5.43
2019-05-05T21:12:42.206Z,8.60
2019-05-05T21:14:59.745Z,7.90
2019-05-05T21:17:24.223Z,8.20
2019-05-05T21:19:47.799Z,11.00
2019-05-05T21:22:29.010Z,17.37
2019-05-05T21:24:54.281Z,25.37
2019-05-05T21:27:17.892Z,13.00
2019-05-05T21:29:42.428Z,13.30
2019-05-05T21:32:06.055Z,14.53
2019-05-05T21:34:29.473Z,11.30
2019-05-05T21:36:54.007Z,8.23
2019-05-05T21:39:17.731Z,8.27
2019-05-05T21:41:41.147Z,6.80
2019-05-05T21:44:06.592Z,9.67
2019-05-05T21:46:30.024Z,7.33
2019-05-05T21:48:54.386Z,8.43
2019-05-05T21:51:28.540Z,6.03
2019-05-05T21:53:53.593Z,7.27
2019-05-05T21:56:24.880Z,5.83
2019-05-05T21:58:48.537Z,8.43
2019-05-05T22:01:15.087Z,7.53
2019-05-05T22:03:39.193Z,6.63
2019-05-05T22:06:03.708Z,7.20
2019-05-05T22:08:27.282Z,7.53
2019-05-05T22:10:50.728Z,5.70
2019-05-05T22:13:14.299Z,7.47
2019-05-05T22:15:37.684Z,5.60
2019-05-05T22:18:01.102Z,5.93
2019-05-05T22:20:33.974Z,5.55
2019-05-05T22:22:57.087Z,8.00
2019-05-05T22:25:20.543Z,4.97
2019-05-05T22:27:44.192Z,7.37
2019-05-05T22:30:10.400Z,6.67
2019-05-05T22:32:34.352Z,7.50
2019-05-05T22:34:57.811Z,5.77
2019-05-05T22:37:21.233Z,4.77
2019-05-05T22:39:44.662Z,5.10
2019-05-05T22:42:08.446Z,6.00
2019-05-05T22:44:33.854Z,5.63
2019-05-05T22:46:57.415Z,7.90
2019-05-05T22:49:20.906Z,6.07
2019-05-05T22:51:44.894Z,6.87
2019-05-05T22:54:08.763Z,7.93
2019-05-05T22:56:33.737Z,5.90
2019-05-05T22:58:57.421Z,6.20
2019-05-05T23:01:20.906Z,6.33
2019-05-05T23:03:46.063Z,7.30
2019-05-05T23:06:11.127Z,7.83
2019-05-05T23:08:35.066Z,6.70
2019-05-05T23:10:58.863Z,7.37
2019-05-05T23:13:22.578Z,5.87
2019-05-05T23:15:47.628Z,8.47
2019-05-05T23:18:12.716Z,5.60
2019-05-05T23:20:53.959Z,5.13
2019-05-05T23:23:31.326Z,5.53
2019-05-05T23:25:59.188Z,5.80
2019-05-05T23:28:23.745Z,7.87
2019-05-05T23:30:47.791Z,5.73
2019-05-05T23:33:11.215Z,7.80
2019-05-05T23:35:34.680Z,7.10
2019-05-05T23:37:58.096Z,5.77
2019-05-05T23:40:24.658Z,7.57
2019-05-05T23:42:48.461Z,6.73
2019-05-05T23:45:13.795Z,7.43
2019-05-05T23:47:37.340Z,8.03
2019-05-05T23:50:00.755Z,6.33
2019-05-05T23:52:24.192Z,5.80
2019-05-05T23:54:47.605Z,9.10
2019-05-05T23:57:11.068Z,7.60
2019-05-05T23:59:34.480Z,7.00
